createdAt,value
2019-04-03T00:00:08.508Z,70.36
2019-04-03T00:01:08.603Z,70.46
2019-04-03T00:02:08.752Z,70.56
2019-04-03T00:03:08.792Z,71.13
2019-04-03T00:04:08.881Z,71.03
2019-04-03T00:05:08.960Z,71.03
2019-04-03T00:06:09.104Z,71.51
2019-04-03T00:07:09.162Z,70.65
2019-04-03T00:08:09.253Z,71.22
2019-04-03T00:09:09.344Z,70.56
2019-04-03T00:10:09.459Z,71.22
2019-04-03T00:11:09.743Z,70.65
2019-04-03T00:12:10.534Z,70.84
2019-04-03T00:13:11.167Z,71.22
2019-04-03T00:14:12.128Z,71.03
2019-04-03T00:15:09.926Z,71.03
2019-04-03T00:16:10.012Z,71.51
2019-04-03T00:17:10.097Z,71.13
2019-04-03T00:18:10.183Z,71.22
2019-04-03T00:19:10.273Z,70.94
2019-04-03T00:20:10.366Z,71.42
2019-04-03T00:21:10.459Z,71.13
2019-04-03T00:22:10.552Z,71.13
2019-04-03T00:23:10.690Z,71.03
2019-04-03T00:24:10.739Z,71.03
2019-04-03T00:25:10.833Z,71.51
2019-04-03T00:26:10.925Z,71.32
2019-04-03T00:27:11.017Z,71.32
2019-04-03T00:28:11.109Z,71.70
2019-04-03T00:29:11.199Z,71.57
2019-04-03T00:30:11.383Z,71.86
2019-04-03T00:31:11.386Z,72.28
2019-04-03T00:32:11.500Z,71.95
2019-04-03T00:33:11.580Z,71.86
2019-04-03T00:34:11.669Z,71.89
2019-04-03T00:35:11.761Z,72.05
2019-04-03T00:36:11.867Z,71.70
2019-04-03T00:37:11.942Z,72.37
2019-04-03T00:38:12.036Z,72.47
2019-04-03T00:39:12.125Z,72.53
2019-04-03T00:40:12.218Z,72.28
2019-04-03T00:41:12.417Z,72.37
2019-04-03T00:42:12.405Z,72.37
2019-04-03T00:43:12.545Z,72.28
2019-04-03T00:44:12.594Z,72.33
2019-04-03T00:45:12.689Z,72.43
2019-04-03T00:46:12.782Z,72.14
2019-04-03T00:47:12.873Z,72.43
2019-04-03T00:48:13.090Z,72.43
2019-04-03T00:49:13.059Z,72.47
2019-04-03T00:50:13.152Z,72.28
2019-04-03T00:51:13.243Z,72.24
2019-04-03T00:52:13.336Z,72.47
2019-04-03T00:53:13.428Z,72.81
2019-04-03T00:54:13.532Z,72.85
2019-04-03T00:55:13.618Z,72.85
2019-04-03T00:56:13.730Z,72.91
2019-04-03T00:57:13.851Z,72.53
2019-04-03T00:58:13.931Z,72.72
2019-04-03T00:59:14.020Z,72.62
2019-04-03T01:00:14.114Z,72.91
2019-04-03T01:01:14.213Z,72.81
2019-04-03T01:02:16.433Z,72.62
2019-04-03T01:03:14.381Z,72.91
2019-04-03T01:04:14.537Z,73.00
2019-04-03T01:05:14.574Z,73.19
2019-04-03T01:06:14.786Z,74.05
2019-04-03T01:07:14.760Z,73.19
2019-04-03T01:08:14.911Z,73.19
2019-04-03T01:09:14.955Z,73.39
2019-04-03T01:10:15.047Z,73.39
2019-04-03T01:11:15.139Z,73.39
2019-04-03T01:12:15.232Z,73.39
2019-04-03T01:13:15.326Z,73.39
2019-04-03T01:14:15.414Z,73.39
2019-04-03T01:15:15.504Z,73.39
2019-04-03T01:16:15.631Z,73.48
2019-04-03T01:17:15.762Z,73.77
2019-04-03T01:18:15.824Z,74.34
2019-04-03T01:19:15.969Z,74.49
2019-04-03T01:20:15.994Z,74.49
2019-04-03T01:21:16.103Z,74.98
2019-04-03T01:22:16.190Z,74.88
2019-04-03T01:23:16.285Z,74.88
2019-04-03T01:24:16.375Z,75.26
2019-04-03T01:25:16.468Z,75.26
2019-04-03T01:26:16.559Z,76.03
2019-04-03T01:27:16.658Z,75.64
2019-04-03T01:28:16.744Z,76.08
2019-04-03T01:29:16.837Z,76.56
2019-04-03T01:30:17.141Z,76.56
2019-04-03T01:31:17.022Z,76.75
2019-04-03T01:32:17.124Z,76.84
2019-04-03T01:33:17.250Z,76.84
2019-04-03T01:34:17.929Z,77.51
2019-04-03T01:35:17.846Z,77.80
2019-04-03T01:36:18.187Z,78.37
2019-04-03T01:37:19.198Z,78.47
2019-04-03T01:38:19.432Z,78.05
2019-04-03T01:39:18.982Z,78.23
2019-04-03T01:40:20.151Z,78.37
2019-04-03T01:41:18.885Z,78.81
2019-04-03T01:42:18.036Z,78.72
2019-04-03T01:43:18.135Z,79.00
2019-04-03T01:44:18.233Z,79.00
2019-04-03T01:45:18.440Z,79.57
2019-04-03T01:46:18.412Z,80.05
2019-04-03T01:47:18.504Z,79.86
2019-04-03T01:48:18.597Z,80.15
2019-04-03T01:49:18.690Z,79.96
2019-04-03T01:50:18.913Z,79.77
2019-04-03T01:51:18.874Z,80.15
2019-04-03T01:52:18.967Z,80.33
2019-04-03T01:53:19.056Z,80.24
2019-04-03T01:54:19.147Z,80.15
2019-04-03T01:55:19.243Z,80.30
2019-04-03T01:56:19.378Z,80.91
2019-04-03T01:57:19.437Z,80.77
2019-04-03T01:58:19.532Z,80.72
2019-04-03T01:59:19.645Z,80.62
2019-04-03T02:00:19.724Z,80.91
2019-04-03T02:01:19.806Z,80.91
2019-04-03T02:02:19.907Z,81.15
2019-04-03T02:03:19.990Z,80.87
2019-04-03T02:04:20.076Z,81.15
2019-04-03T02:05:20.169Z,81.06
2019-04-03T02:06:20.263Z,81.44
2019-04-03T02:07:20.368Z,81.06
2019-04-03T02:08:20.457Z,81.25
2019-04-03T02:09:20.550Z,81.73
2019-04-03T02:10:20.643Z,81.44
2019-04-03T02:11:20.749Z,81.73
2019-04-03T02:12:20.827Z,81.73
2019-04-03T02:13:21.893Z,81.82
2019-04-03T02:14:22.134Z,81.63
2019-04-03T02:15:21.694Z,81.54
2019-04-03T02:16:21.474Z,82.30
2019-04-03T02:17:21.834Z,81.54
2019-04-03T02:18:21.370Z,81.82
2019-04-03T02:19:21.458Z,81.63
2019-04-03T02:20:21.575Z,81.63
2019-04-03T02:21:21.646Z,81.44
2019-04-03T02:22:21.738Z,81.44
2019-04-03T02:23:21.827Z,81.63
2019-04-03T02:24:21.926Z,81.54
2019-04-03T02:25:22.016Z,82.01
2019-04-03T02:26:22.108Z,81.92
2019-04-03T02:27:22.209Z,81.82
2019-04-03T02:28:22.318Z,81.82
2019-04-03T02:29:22.577Z,81.82
2019-04-03T02:30:22.623Z,81.63
2019-04-03T02:31:22.571Z,82.11
2019-04-03T02:32:24.206Z,82.49
2019-04-03T02:33:22.756Z,82.49
2019-04-03T02:34:22.911Z,82.59
2019-04-03T02:35:22.935Z,82.49
2019-04-03T02:36:23.036Z,82.49
2019-04-03T02:37:23.118Z,82.40
2019-04-03T02:38:23.826Z,82.78
2019-04-03T02:39:26.138Z,82.97
2019-04-03T02:40:23.407Z,83.06
2019-04-03T02:41:23.514Z,83.16
2019-04-03T02:42:23.738Z,83.25
2019-04-03T02:43:23.689Z,83.02
2019-04-03T02:44:23.781Z,83.12
2019-04-03T02:45:24.703Z,82.92
2019-04-03T02:46:27.495Z,83.40
2019-04-03T02:47:24.048Z,84.20
2019-04-03T02:48:24.134Z,83.78
2019-04-03T02:49:24.289Z,83.69
2019-04-03T02:50:24.445Z,83.50
2019-04-03T02:51:24.409Z,83.69
2019-04-03T02:52:25.471Z,84.16
2019-04-03T02:53:24.884Z,83.78
2019-04-03T02:54:24.684Z,83.59
2019-04-03T02:55:24.965Z,83.78
2019-04-03T02:56:24.907Z,83.54
2019-04-03T02:57:24.959Z,83.69
2019-04-03T02:58:25.074Z,83.88
2019-04-03T02:59:25.952Z,83.69
2019-04-03T03:00:25.259Z,83.50
2019-04-03T03:01:25.359Z,83.78
2019-04-03T03:02:25.687Z,83.78
2019-04-03T03:03:25.813Z,84.16
2019-04-03T03:04:26.122Z,83.88
2019-04-03T03:05:28.386Z,83.78
2019-04-03T03:06:25.842Z,83.40
2019-04-03T03:07:25.909Z,83.78
2019-04-03T03:08:25.999Z,83.59
2019-04-03T03:09:26.442Z,84.26
2019-04-03T03:10:26.189Z,84.16
2019-04-03T03:11:26.280Z,84.16
2019-04-03T03:12:27.674Z,83.97
2019-04-03T03:13:26.477Z,83.97
2019-04-03T03:14:26.597Z,84.16
2019-04-03T03:15:26.721Z,83.97
2019-04-03T03:16:26.932Z,83.97
2019-04-03T03:17:26.838Z,83.97
2019-04-03T03:18:28.099Z,83.97
2019-04-03T03:19:27.006Z,83.78
2019-04-03T03:20:27.098Z,83.97
2019-04-03T03:21:27.185Z,84.16
2019-04-03T03:22:27.279Z,83.97
2019-04-03T03:23:27.371Z,84.36
2019-04-03T03:24:29.365Z,84.07
2019-04-03T03:25:27.555Z,83.97
2019-04-03T03:26:27.645Z,84.07
2019-04-03T03:27:27.741Z,83.97
2019-04-03T03:28:27.830Z,84.07
2019-04-03T03:29:28.152Z,83.97
2019-04-03T03:30:38.727Z,83.97
2019-04-03T03:31:57.454Z,84.07
2019-04-03T03:32:33.409Z,84.16
2019-04-03T03:33:35.691Z,83.97
2019-04-03T03:34:48.936Z,84.16
2019-04-03T03:35:34.682Z,84.07
2019-04-03T03:36:29.105Z,84.16
2019-04-03T03:37:30.720Z,84.26
2019-04-03T03:38:28.847Z,84.16
2019-04-03T03:39:28.837Z,83.97
2019-04-03T03:40:28.929Z,84.16
2019-04-03T03:41:29.383Z,84.16
2019-04-03T03:42:31.327Z,83.97
2019-04-03T03:43:29.202Z,83.97
2019-04-03T03:44:29.293Z,84.07
2019-04-03T03:45:29.430Z,83.69
2019-04-03T03:46:29.599Z,84.16
2019-04-03T03:47:34.203Z,84.16
2019-04-03T03:48:29.803Z,83.88
2019-04-03T03:49:29.879Z,83.97
2019-04-03T03:50:29.794Z,84.16
2019-04-03T03:51:31.114Z,84.07
2019-04-03T03:52:29.979Z,84.36
2019-04-03T03:53:30.255Z,84.64
2019-04-03T03:54:30.474Z,84.55
2019-04-03T03:55:30.257Z,84.64
2019-04-03T03:56:31.303Z,84.92
2019-04-03T03:57:30.438Z,85.02
2019-04-03T03:58:30.533Z,84.92
2019-04-03T03:59:30.622Z,84.92
2019-04-03T04:00:30.866Z,85.02
2019-04-03T04:01:31.937Z,85.02
2019-04-03T04:02:30.925Z,85.41
2019-04-03T04:03:30.986Z,84.92
2019-04-03T04:04:31.086Z,85.21
2019-04-03T04:05:31.210Z,85.12
2019-04-03T04:06:35.016Z,85.02
2019-04-03T04:07:31.369Z,85.12
2019-04-03T04:08:31.681Z,85.12
2019-04-03T04:09:31.549Z,85.02
2019-04-03T04:10:35.473Z,85.02
2019-04-03T04:11:32.448Z,85.12
2019-04-03T04:12:31.816Z,85.69
2019-04-03T04:13:31.946Z,85.50
2019-04-03T04:14:32.012Z,85.78
2019-04-03T04:15:32.440Z,85.12
2019-04-03T04:16:37.031Z,85.12
2019-04-03T04:17:32.309Z,85.21
2019-04-03T04:18:32.716Z,84.83
2019-04-03T04:19:32.532Z,84.92
2019-04-03T04:20:36.669Z,84.83
2019-04-03T04:21:32.676Z,84.83
2019-04-03T04:22:32.760Z,84.83
2019-04-03T04:23:32.853Z,85.21
2019-04-03T04:24:32.941Z,84.83
2019-04-03T04:25:33.052Z,84.92
2019-04-03T04:26:33.124Z,85.31
2019-04-03T04:27:35.637Z,84.83
2019-04-03T04:28:33.317Z,85.21
2019-04-03T04:29:33.424Z,85.31
2019-04-03T04:30:33.555Z,85.97
2019-04-03T04:31:33.608Z,85.60
2019-04-03T04:32:33.651Z,85.88
2019-04-03T04:33:33.752Z,85.78
2019-04-03T04:34:33.858Z,85.88
2019-04-03T04:35:33.936Z,85.88
2019-04-03T04:36:34.034Z,86.16
2019-04-03T04:37:34.356Z,86.07
2019-04-03T04:38:34.219Z,85.41
2019-04-03T04:39:34.316Z,86.16
2019-04-03T04:40:34.413Z,85.97
2019-04-03T04:41:34.603Z,86.26
2019-04-03T04:42:35.327Z,85.97
2019-04-03T04:43:34.692Z,86.26
2019-04-03T04:44:34.835Z,86.07
2019-04-03T04:45:34.881Z,86.36
2019-04-03T04:46:34.975Z,86.83
2019-04-03T04:47:35.067Z,86.55
2019-04-03T04:48:35.248Z,87.12
2019-04-03T04:49:35.250Z,87.40
2019-04-03T04:50:35.342Z,86.93
2019-04-03T04:51:35.433Z,87.21
2019-04-03T04:52:35.525Z,87.60
2019-04-03T04:53:35.935Z,87.60
2019-04-03T04:54:35.710Z,88.26
2019-04-03T04:55:36.026Z,87.69
2019-04-03T04:56:37.805Z,87.98
2019-04-03T04:57:36.014Z,88.26
2019-04-03T04:58:36.108Z,88.84
2019-04-03T04:59:36.790Z,88.64
2019-04-03T05:00:36.292Z,88.74
2019-04-03T05:01:36.383Z,89.03
2019-04-03T05:02:36.475Z,88.84
2019-04-03T05:03:36.567Z,88.64
2019-04-03T05:04:36.699Z,89.69
2019-04-03T05:05:36.758Z,89.31
2019-04-03T05:06:36.851Z,89.40
2019-04-03T05:07:36.948Z,89.50
2019-04-03T05:08:37.032Z,89.50
2019-04-03T05:09:37.122Z,89.60
2019-04-03T05:10:37.368Z,90.26
2019-04-03T05:11:39.061Z,90.26
2019-04-03T05:12:38.982Z,90.36
2019-04-03T05:13:37.499Z,90.93
2019-04-03T05:14:37.623Z,90.74
2019-04-03T05:15:37.736Z,90.84
2019-04-03T05:16:37.827Z,91.22
2019-04-03T05:17:37.926Z,91.60
2019-04-03T05:18:38.034Z,91.41
2019-04-03T05:19:38.369Z,91.60
2019-04-03T05:20:38.198Z,91.69
2019-04-03T05:21:38.291Z,92.17
2019-04-03T05:22:38.385Z,92.27
2019-04-03T05:23:38.477Z,92.65
2019-04-03T05:24:38.571Z,93.12
2019-04-03T05:25:38.850Z,92.65
2019-04-03T05:26:38.750Z,92.84
2019-04-03T05:27:38.839Z,92.74
2019-04-03T05:28:38.930Z,92.74
2019-04-03T05:29:39.022Z,93.03
2019-04-03T05:30:39.112Z,93.41
2019-04-03T05:31:39.539Z,92.74
2019-04-03T05:32:41.161Z,92.65
2019-04-03T05:33:41.143Z,92.93
2019-04-03T05:34:39.480Z,92.93
2019-04-03T05:35:39.585Z,93.03
2019-04-03T05:36:39.667Z,92.84
2019-04-03T05:37:39.761Z,92.93
2019-04-03T05:38:39.848Z,93.32
2019-04-03T05:39:40.063Z,93.51
2019-04-03T05:40:40.117Z,93.41
2019-04-03T05:41:40.126Z,93.41
2019-04-03T05:42:40.216Z,93.88
2019-04-03T05:43:40.313Z,93.88
2019-04-03T05:44:40.402Z,93.70
2019-04-03T05:45:41.751Z,93.88
2019-04-03T05:46:41.615Z,93.79
2019-04-03T05:47:40.709Z,93.98
2019-04-03T05:48:40.813Z,93.70
2019-04-03T05:49:40.925Z,94.08
2019-04-03T05:50:41.000Z,93.98
2019-04-03T05:51:41.321Z,93.98
2019-04-03T05:52:41.178Z,93.88
2019-04-03T05:53:41.269Z,94.84
2019-04-03T05:54:44.010Z,94.46
2019-04-03T05:55:41.759Z,94.08
2019-04-03T05:56:42.972Z,94.65
2019-04-03T05:57:41.693Z,94.08
2019-04-03T05:58:54.010Z,94.08
2019-04-03T05:59:43.833Z,94.56
2019-04-03T06:00:41.909Z,94.37
2019-04-03T06:01:45.713Z,95.41
2019-04-03T06:02:42.099Z,95.22
2019-04-03T06:03:44.834Z,95.03
2019-04-03T06:04:42.749Z,95.03
2019-04-03T06:05:44.045Z,95.22
2019-04-03T06:06:42.632Z,94.74
2019-04-03T06:07:42.554Z,95.41
2019-04-03T06:08:42.651Z,95.22
2019-04-03T06:09:42.739Z,95.12
2019-04-03T06:10:43.026Z,95.22
2019-04-03T06:11:42.976Z,94.65
2019-04-03T06:12:45.363Z,95.41
2019-04-03T06:13:43.334Z,96.08
2019-04-03T06:14:43.455Z,96.46
2019-04-03T06:15:43.295Z,96.84
2019-04-03T06:16:43.381Z,96.75
2019-04-03T06:17:43.472Z,96.56
2019-04-03T06:18:43.575Z,96.89
2019-04-03T06:19:43.655Z,96.75
2019-04-03T06:20:44.021Z,97.17
2019-04-03T06:21:45.645Z,97.08
2019-04-03T06:22:43.941Z,97.08
2019-04-03T06:23:45.059Z,97.17
2019-04-03T06:24:44.131Z,96.41
2019-04-03T06:25:44.224Z,96.51
2019-04-03T06:26:45.075Z,96.70
2019-04-03T06:27:46.242Z,96.51
2019-04-03T06:28:46.679Z,96.51
2019-04-03T06:29:44.601Z,96.98
2019-04-03T06:30:44.759Z,97.27
2019-04-03T06:31:44.786Z,97.75
2019-04-03T06:32:44.889Z,97.56
2019-04-03T06:33:44.981Z,97.37
2019-04-03T06:34:45.070Z,97.17
2019-04-03T06:35:46.070Z,97.56
2019-04-03T06:36:45.253Z,97.46
2019-04-03T06:37:45.348Z,97.17
2019-04-03T06:38:45.503Z,97.56
2019-04-03T06:39:45.710Z,97.66
2019-04-03T06:40:45.632Z,97.46
2019-04-03T06:41:45.738Z,97.17
2019-04-03T06:42:45.829Z,97.66
2019-04-03T06:43:49.118Z,97.66
2019-04-03T06:44:46.085Z,98.42
2019-04-03T06:45:46.247Z,98.22
2019-04-03T06:46:46.204Z,98.22
2019-04-03T06:47:46.305Z,98.42
2019-04-03T06:48:46.391Z,98.32
2019-04-03T06:49:46.483Z,98.90
2019-04-03T06:50:46.577Z,98.80
2019-04-03T06:51:48.907Z,99.08
2019-04-03T06:52:46.764Z,98.99
2019-04-03T06:53:47.125Z,99.18
2019-04-03T06:54:47.190Z,99.37
2019-04-03T06:55:47.046Z,98.99
2019-04-03T06:56:47.140Z,97.66
2019-04-03T06:57:47.397Z,97.37
2019-04-03T06:58:47.333Z,95.94
2019-04-03T06:59:48.730Z,95.56
2019-04-03T07:00:47.678Z,95.27
2019-04-03T07:01:47.653Z,95.08
2019-04-03T07:02:47.710Z,95.65
2019-04-03T07:03:47.985Z,95.94
2019-04-03T07:04:47.913Z,96.32
2019-04-03T07:05:47.996Z,96.56
2019-04-03T07:06:48.110Z,97.13
2019-04-03T07:07:48.174Z,97.32
2019-04-03T07:08:48.265Z,97.61
2019-04-03T07:09:50.414Z,97.22
2019-04-03T07:10:54.970Z,98.18
2019-04-03T07:11:48.529Z,97.99
2019-04-03T07:12:48.692Z,97.80
2019-04-03T07:13:48.713Z,98.18
2019-04-03T07:14:48.867Z,98.18
2019-04-03T07:15:48.899Z,97.51
2019-04-03T07:16:48.991Z,98.37
2019-04-03T07:17:49.393Z,97.61
2019-04-03T07:18:49.237Z,97.89
2019-04-03T07:19:49.562Z,98.18
2019-04-03T07:20:51.284Z,98.08
2019-04-03T07:21:49.509Z,98.08
2019-04-03T07:22:49.667Z,97.71
2019-04-03T07:23:49.747Z,97.32
2019-04-03T07:24:49.811Z,97.03
2019-04-03T07:25:49.957Z,97.03
2019-04-03T07:26:50.038Z,96.66
2019-04-03T07:27:50.123Z,96.94
2019-04-03T07:28:50.276Z,96.98
2019-04-03T07:29:50.381Z,95.98
2019-04-03T07:30:52.809Z,95.75
2019-04-03T07:31:50.558Z,96.32
2019-04-03T07:32:50.590Z,96.51
2019-04-03T07:33:50.684Z,96.80
2019-04-03T07:34:50.776Z,97.08
2019-04-03T07:35:50.873Z,97.18
2019-04-03T07:36:50.964Z,96.03
2019-04-03T07:37:51.662Z,95.27
2019-04-03T07:38:51.141Z,95.36
2019-04-03T07:39:51.229Z,95.36
2019-04-03T07:40:52.366Z,95.27
2019-04-03T07:41:53.230Z,95.36
2019-04-03T07:42:51.514Z,95.17
2019-04-03T07:43:51.639Z,95.56
2019-04-03T07:44:51.688Z,95.36
2019-04-03T07:45:51.775Z,95.17
2019-04-03T07:46:54.646Z,94.89
2019-04-03T07:47:51.973Z,94.65
2019-04-03T07:48:52.074Z,94.36
2019-04-03T07:49:52.142Z,94.07
2019-04-03T07:50:52.242Z,94.27
2019-04-03T07:51:52.334Z,93.98
2019-04-03T07:52:52.427Z,94.07
2019-04-03T07:53:52.626Z,93.70
2019-04-03T07:54:53.100Z,92.64
2019-04-03T07:55:54.984Z,92.26
2019-04-03T07:56:53.128Z,91.97
2019-04-03T07:57:52.900Z,91.11
2019-04-03T07:58:52.989Z,91.30
2019-04-03T07:59:53.102Z,91.30
2019-04-03T08:00:53.174Z,91.50
2019-04-03T08:01:53.266Z,91.50
2019-04-03T08:02:53.513Z,91.50
2019-04-03T08:03:53.499Z,91.59
2019-04-03T08:04:55.731Z,90.45
2019-04-03T08:05:55.902Z,89.59
2019-04-03T08:06:53.758Z,89.06
2019-04-03T08:07:54.068Z,89.01
2019-04-03T08:09:06.532Z,88.25
2019-04-03T08:09:56.962Z,88.06
2019-04-03T08:10:54.105Z,88.73
2019-04-03T08:11:54.315Z,87.20
2019-04-03T08:12:54.293Z,87.15
2019-04-03T08:13:54.555Z,86.38
2019-04-03T08:14:54.474Z,86.96
2019-04-03T08:15:54.821Z,87.62
2019-04-03T08:16:56.325Z,87.24
2019-04-03T08:17:57.390Z,87.24
2019-04-03T08:18:55.003Z,87.91
2019-04-03T08:19:55.262Z,88.20
2019-04-03T08:20:56.783Z,88.58
2019-04-03T08:21:55.131Z,87.72
2019-04-03T08:22:55.225Z,87.15
2019-04-03T08:23:55.322Z,88.10
2019-04-03T08:24:55.745Z,87.24
2019-04-03T08:25:55.788Z,87.43
2019-04-03T08:26:55.680Z,87.43
2019-04-03T08:27:55.891Z,87.82
2019-04-03T08:28:56.087Z,87.53
2019-04-03T08:29:55.891Z,86.96
2019-04-03T08:30:56.009Z,87.29
2019-04-03T08:31:56.089Z,85.62
2019-04-03T08:32:56.299Z,86.52
2019-04-03T08:33:58.753Z,86.04
2019-04-03T08:34:56.679Z,85.18
2019-04-03T08:35:56.655Z,84.99
2019-04-03T08:36:56.550Z,84.23
2019-04-03T08:37:56.646Z,84.13
2019-04-03T08:38:56.737Z,84.80
2019-04-03T08:39:58.500Z,84.99
2019-04-03T08:40:57.162Z,84.32
2019-04-03T08:41:57.266Z,83.84
2019-04-03T08:42:59.316Z,84.80
2019-04-03T08:43:57.517Z,84.70
2019-04-03T08:44:57.307Z,84.99
2019-04-03T08:45:57.400Z,85.38
2019-04-03T08:46:57.660Z,85.09
2019-04-03T08:47:57.616Z,85.18
2019-04-03T08:48:57.742Z,84.99
2019-04-03T08:49:58.365Z,84.80
2019-04-03T08:50:58.486Z,84.52
2019-04-03T08:51:58.235Z,84.61
2019-04-03T08:52:58.042Z,84.52
2019-04-03T08:53:58.293Z,84.94
2019-04-03T08:54:58.228Z,84.65
2019-04-03T08:55:58.318Z,85.13
2019-04-03T08:56:58.413Z,85.71
2019-04-03T08:57:58.577Z,85.32
2019-04-03T08:58:58.716Z,85.51
2019-04-03T09:00:00.722Z,85.18
2019-04-03T09:00:58.792Z,83.60
2019-04-03T09:01:58.882Z,83.31
2019-04-03T09:02:59.029Z,83.40
2019-04-03T09:03:59.207Z,83.75
2019-04-03T09:04:59.169Z,83.17
2019-04-03T09:05:59.260Z,82.89
2019-04-03T09:06:59.356Z,81.93
2019-04-03T09:07:59.750Z,82.12
2019-04-03T09:08:59.586Z,81.93
2019-04-03T09:10:01.064Z,81.65
2019-04-03T09:10:59.708Z,81.65
2019-04-03T09:11:59.802Z,81.55
2019-04-03T09:12:59.901Z,81.36
2019-04-03T09:13:59.999Z,81.07
2019-04-03T09:15:00.093Z,81.65
2019-04-03T09:16:00.408Z,81.65
2019-04-03T09:17:02.272Z,81.45
2019-04-03T09:18:00.498Z,81.74
2019-04-03T09:19:00.490Z,82.12
2019-04-03T09:20:00.584Z,81.36
2019-04-03T09:21:00.677Z,80.59
2019-04-03T09:22:00.770Z,80.69
2019-04-03T09:23:01.068Z,80.69
2019-04-03T09:24:01.236Z,80.98
2019-04-03T09:25:01.109Z,81.16
2019-04-03T09:26:03.093Z,80.30
2019-04-03T09:27:01.238Z,80.40
2019-04-03T09:28:01.332Z,80.79
2019-04-03T09:29:01.422Z,80.69
2019-04-03T09:30:01.840Z,80.98
2019-04-03T09:31:01.606Z,80.30
2019-04-03T09:32:01.702Z,80.06
2019-04-03T09:33:01.819Z,80.82
2019-04-03T09:34:02.099Z,80.44
2019-04-03T09:35:02.438Z,80.54
2019-04-03T09:36:04.328Z,80.25
2019-04-03T09:37:02.328Z,79.77
2019-04-03T09:38:02.253Z,80.63
2019-04-03T09:39:02.550Z,80.63
2019-04-03T09:40:02.838Z,80.06
2019-04-03T09:41:02.514Z,79.20
2019-04-03T09:42:02.605Z,79.68
2019-04-03T09:43:02.701Z,79.49
2019-04-03T09:44:02.795Z,79.96
2019-04-03T09:45:03.011Z,79.77
2019-04-03T09:46:03.308Z,80.16
2019-04-03T09:47:03.778Z,79.87
2019-04-03T09:48:05.174Z,80.54
2019-04-03T09:49:03.471Z,79.05
2019-04-03T09:50:03.361Z,78.86
2019-04-03T09:51:03.439Z,78.57
2019-04-03T09:52:03.697Z,78.57
2019-04-03T09:53:03.625Z,77.90
2019-04-03T09:55:46.326Z,76.79
2019-04-03T09:56:57.863Z,75.83
2019-04-03T09:57:46.630Z,76.12
2019-04-03T09:58:46.554Z,76.02
2019-04-03T09:59:46.647Z,76.50
2019-04-03T10:00:46.741Z,75.93
2019-04-03T10:01:47.920Z,76.21
2019-04-03T10:02:46.938Z,74.68
2019-04-03T10:03:47.086Z,74.05
2019-04-03T10:04:47.119Z,74.68
2019-04-03T10:05:47.225Z,74.82
2019-04-03T10:06:47.467Z,73.95
2019-04-03T10:07:47.401Z,74.15
2019-04-03T10:08:47.498Z,74.33
2019-04-03T10:09:47.595Z,73.24
2019-04-03T10:10:47.945Z,72.19
2019-04-03T10:11:49.090Z,71.14
2019-04-03T10:12:48.938Z,72.29
2019-04-03T10:13:47.982Z,74.01
2019-04-03T10:14:48.358Z,73.05
2019-04-03T10:15:48.265Z,74.68
2019-04-03T10:16:48.231Z,73.63
2019-04-03T10:17:48.749Z,73.54
2019-04-03T10:18:48.421Z,74.01
2019-04-03T10:19:48.753Z,74.11
2019-04-03T10:20:49.503Z,75.07
2019-04-03T10:21:52.162Z,74.40
2019-04-03T10:22:48.801Z,73.24
2019-04-03T10:23:48.893Z,72.13
2019-04-03T10:24:48.988Z,71.62
2019-04-03T10:25:49.113Z,71.52
2019-04-03T10:26:49.483Z,71.42
2019-04-03T10:27:49.268Z,71.27
2019-04-03T10:28:49.383Z,70.98
2019-04-03T10:29:50.557Z,71.23
2019-04-03T10:30:52.456Z,72.19
2019-04-03T10:31:49.637Z,72.29
2019-04-03T10:32:50.348Z,72.19
2019-04-03T10:33:49.821Z,72.29
2019-04-03T10:34:50.054Z,71.81
2019-04-03T10:35:50.084Z,72.09
2019-04-03T10:36:50.090Z,72.00
2019-04-03T10:37:50.177Z,72.29
2019-04-03T10:38:50.271Z,71.81
2019-04-03T10:39:52.772Z,72.16
2019-04-03T10:40:50.457Z,71.48
2019-04-03T10:41:50.662Z,72.16
2019-04-03T10:42:50.652Z,72.96
2019-04-03T10:43:51.053Z,73.05
2019-04-03T10:44:51.258Z,72.00
2019-04-03T10:45:50.933Z,72.29
2019-04-03T10:46:51.260Z,72.92
2019-04-03T10:47:51.122Z,72.34
2019-04-03T10:48:51.218Z,72.73
2019-04-03T10:49:51.579Z,72.77
2019-04-03T10:50:51.527Z,73.11
2019-04-03T10:51:51.769Z,72.16
2019-04-03T10:52:51.595Z,71.77
2019-04-03T10:53:52.437Z,72.06
2019-04-03T10:54:51.791Z,71.30
2019-04-03T10:55:51.881Z,71.62
2019-04-03T10:56:52.110Z,71.23
2019-04-03T10:57:52.085Z,71.20
2019-04-03T10:58:52.168Z,72.58
2019-04-03T10:59:54.919Z,71.42
2019-04-03T11:00:52.679Z,71.23
2019-04-03T11:01:52.441Z,72.38
2019-04-03T11:02:52.535Z,71.62
2019-04-03T11:03:52.628Z,70.56
2019-04-03T11:04:52.941Z,70.72
2019-04-03T11:05:52.890Z,71.01
2019-04-03T11:06:52.912Z,71.14
2019-04-03T11:07:53.009Z,71.77
2019-04-03T11:08:53.279Z,71.68
2019-04-03T11:09:53.212Z,71.20
2019-04-03T11:10:53.294Z,71.20
2019-04-03T11:11:53.385Z,71.04
2019-04-03T11:12:53.474Z,70.76
2019-04-03T11:13:53.580Z,70.28
2019-04-03T11:14:53.776Z,70.28
2019-04-03T11:15:53.775Z,69.95
2019-04-03T11:16:53.887Z,70.56
2019-04-03T11:17:54.028Z,70.09
2019-04-03T11:18:59.940Z,69.99
2019-04-03T11:19:54.417Z,70.18
2019-04-03T11:20:54.510Z,69.51
2019-04-03T11:21:56.037Z,68.46
2019-04-03T11:23:04.008Z,68.94
2019-04-03T11:23:54.887Z,69.00
2019-04-03T11:24:54.642Z,69.67
2019-04-03T11:25:54.747Z,69.76
2019-04-03T11:26:54.914Z,68.71
2019-04-03T11:27:55.059Z,69.00
2019-04-03T11:28:55.052Z,69.51
2019-04-03T11:29:55.200Z,69.51
2019-04-03T11:30:56.318Z,68.46
2019-04-03T11:31:55.319Z,68.46
2019-04-03T11:32:55.420Z,67.98
2019-04-03T11:33:55.528Z,67.79
2019-04-03T11:34:55.606Z,68.55
2019-04-03T11:35:55.703Z,67.69
2019-04-03T11:36:56.160Z,67.02
2019-04-03T11:37:56.201Z,66.25
2019-04-03T11:39:10.424Z,65.88
2019-04-03T11:40:02.428Z,66.74
2019-04-03T11:40:56.180Z,66.93
2019-04-03T11:41:56.498Z,66.80
2019-04-03T11:42:57.279Z,67.18
2019-04-03T11:43:56.495Z,67.37
2019-04-03T11:44:56.591Z,68.52
2019-04-03T11:45:57.072Z,69.19
2019-04-03T11:46:56.913Z,68.94
2019-04-03T11:47:56.902Z,68.74
2019-04-03T11:48:56.981Z,69.32
2019-04-03T11:49:57.075Z,69.23
2019-04-03T11:50:57.670Z,69.51
2019-04-03T11:51:58.964Z,68.74
2019-04-03T11:52:59.146Z,69.80
2019-04-03T11:53:57.681Z,70.28
2019-04-03T11:54:57.559Z,69.95
2019-04-03T11:55:57.655Z,70.53
2019-04-03T11:56:57.988Z,70.81
2019-04-03T11:57:58.127Z,72.25
2019-04-03T11:58:57.955Z,72.54
2019-04-03T11:59:58.040Z,72.63
2019-04-03T12:00:58.562Z,72.25
2019-04-03T12:01:58.593Z,72.34
2019-04-03T12:02:58.753Z,72.92
2019-04-03T12:03:58.503Z,72.83
2019-04-03T12:04:58.825Z,73.02
2019-04-03T12:05:58.929Z,72.83
2019-04-03T12:06:58.794Z,72.34
2019-04-03T12:07:58.887Z,72.83
2019-04-03T12:09:00.950Z,71.20
2019-04-03T12:09:59.417Z,71.11
2019-04-03T12:10:59.539Z,71.23
2019-04-03T12:11:59.279Z,70.66
2019-04-03T12:12:59.374Z,70.28
2019-04-03T12:13:59.473Z,69.99
2019-04-03T12:14:59.635Z,69.80
2019-04-03T12:15:59.660Z,69.32
2019-04-03T12:17:00.192Z,68.84
2019-04-03T12:18:01.160Z,69.99
2019-04-03T12:18:59.984Z,70.09
2019-04-03T12:20:00.062Z,69.93
2019-04-03T12:21:00.274Z,69.54
2019-04-03T12:22:00.309Z,69.17
2019-04-03T12:23:00.406Z,69.26
2019-04-03T12:24:00.573Z,68.97
2019-04-03T12:25:00.682Z,68.97
2019-04-03T12:26:00.696Z,67.82
2019-04-03T12:27:01.040Z,67.34
2019-04-03T12:28:01.129Z,67.15
2019-04-03T12:29:00.990Z,67.25
2019-04-03T12:30:01.098Z,67.63
2019-04-03T12:31:01.458Z,66.96
2019-04-03T12:32:03.339Z,67.05
2019-04-03T12:33:01.380Z,68.21
2019-04-03T12:34:05.255Z,68.30
2019-04-03T12:35:01.564Z,68.59
2019-04-03T12:36:01.808Z,68.30
2019-04-03T12:37:01.788Z,68.49
2019-04-03T12:38:01.919Z,67.38
2019-04-03T12:39:02.130Z,66.99
2019-04-03T12:40:02.171Z,67.76
2019-04-03T12:41:04.891Z,66.80
2019-04-03T12:42:02.563Z,66.55
2019-04-03T12:43:02.409Z,66.26
2019-04-03T12:44:02.509Z,66.71
2019-04-03T12:45:02.985Z,66.93
2019-04-03T12:46:03.281Z,66.26
2019-04-03T12:47:03.030Z,66.06
2019-04-03T12:48:03.183Z,65.01
2019-04-03T12:49:02.987Z,65.78
2019-04-03T12:50:03.104Z,65.68
2019-04-03T12:51:03.245Z,65.49
2019-04-03T12:52:04.468Z,65.30
2019-04-03T12:53:03.366Z,65.39
2019-04-03T12:54:03.448Z,65.97
2019-04-03T12:55:03.541Z,65.97